createdAt,value
2022-11-02T00:00:27.813Z,12.70
2022-11-02T00:02:55.044Z,12.70
2022-11-02T00:05:25.706Z,12.70
2022-11-02T00:07:55.504Z,12.60
2022-11-02T00:10:23.440Z,12.60
2022-11-02T00:12:50.947Z,12.60
2022-11-02T00:15:18.281Z,12.60
2022-11-02T00:17:53.500Z,12.70
2022-11-02T00:20:21.191Z,12.70
2022-11-02T00:22:51.150Z,12.60
2022-11-02T00:25:21.552Z,12.70
2022-11-02T00:27:48.407Z,12.70
2022-11-02T00:30:16.146Z,12.70
2022-11-02T00:32:42.962Z,12.70
2022-11-02T00:35:10.320Z,12.80
2022-11-02T00:37:37.651Z,12.80
2022-11-02T00:40:05.359Z,12.90
2022-11-02T00:42:32.167Z,12.90
2022-11-02T00:44:58.959Z,12.90
2022-11-02T00:47:26.126Z,12.90
2022-11-02T00:49:52.859Z,12.80
2022-11-02T00:52:19.629Z,13.00
2022-11-02T00:54:47.031Z,12.90
2022-11-02T00:57:13.862Z,13.00
2022-11-02T00:59:40.685Z,12.90
2022-11-02T01:02:07.568Z,12.90
2022-11-02T01:04:35.176Z,12.80
2022-11-02T01:07:03.554Z,12.70
2022-11-02T01:09:30.593Z,12.60
2022-11-02T01:11:57.856Z,12.60
2022-11-02T01:14:24.642Z,12.60
2022-11-02T01:16:51.479Z,12.60
2022-11-02T01:19:18.595Z,12.60
2022-11-02T01:21:45.486Z,12.50
2022-11-02T01:24:12.319Z,12.50
2022-11-02T01:26:39.349Z,12.50
2022-11-02T01:29:06.595Z,12.40
2022-11-02T01:31:33.420Z,12.40
2022-11-02T01:34:00.190Z,12.50
2022-11-02T01:38:56.810Z,12.50
2022-11-02T01:41:23.545Z,12.50
2022-11-02T01:43:54.359Z,12.60
2022-11-02T01:46:28.202Z,12.60
2022-11-02T01:49:13.494Z,12.50
2022-11-02T01:51:48.296Z,12.60
2022-11-02T01:54:19.723Z,12.70
2022-11-02T01:56:51.787Z,12.60
2022-11-02T01:59:24.012Z,12.60
2022-11-02T02:01:50.896Z,12.50
2022-11-02T02:04:18.152Z,12.50
2022-11-02T02:06:45.245Z,12.50
2022-11-02T02:09:14.662Z,12.40
2022-11-02T02:11:41.918Z,12.40
2022-11-02T02:14:14.728Z,12.40
2022-11-02T02:16:59.465Z,12.40
2022-11-02T02:20:08.225Z,12.40
2022-11-02T02:23:15.021Z,12.40
2022-11-02T02:25:50.724Z,12.50
2022-11-02T02:28:35.044Z,12.50
2022-11-02T02:31:20.880Z,12.40
2022-11-02T02:33:59.754Z,12.30
2022-11-02T02:36:34.671Z,12.30
2022-11-02T02:39:10.234Z,12.30
2022-11-02T02:41:44.875Z,12.20
2022-11-02T02:44:17.159Z,12.30
2022-11-02T02:46:56.836Z,12.20
2022-11-02T02:49:36.876Z,12.20
2022-11-02T02:52:05.341Z,12.20
2022-11-02T02:54:37.848Z,12.10
2022-11-02T02:57:11.072Z,12.20
2022-11-02T02:59:46.125Z,12.10
2022-11-02T03:02:16.428Z,12.20
2022-11-02T03:04:43.265Z,12.10
2022-11-02T03:07:13.333Z,12.20
2022-11-02T03:10:01.256Z,12.20
2022-11-02T03:12:37.099Z,12.30
2022-11-02T03:15:26.891Z,12.30
2022-11-02T03:18:11.618Z,12.30
2022-11-02T03:21:09.140Z,12.30
2022-11-02T03:23:41.432Z,12.20
2022-11-02T03:26:26.356Z,12.30
2022-11-02T03:28:57.965Z,12.30
2022-11-02T03:31:39.468Z,12.30
2022-11-02T03:34:13.464Z,12.30
2022-11-02T03:36:57.255Z,12.20
2022-11-02T03:39:49.062Z,12.40
2022-11-02T03:42:20.852Z,12.40
2022-11-02T03:44:50.820Z,12.40
2022-11-02T03:47:20.936Z,12.40
2022-11-02T03:49:50.413Z,12.40
2022-11-02T03:52:23.370Z,12.40
2022-11-02T03:55:26.308Z,12.40
2022-11-02T03:57:53.186Z,12.30
2022-11-02T04:00:23.255Z,12.40
2022-11-02T04:02:56.436Z,12.40
2022-11-02T04:05:35.594Z,12.50
2022-11-02T04:08:20.783Z,12.40
2022-11-02T04:11:06.703Z,12.40
2022-11-02T04:13:52.128Z,12.40
2022-11-02T04:16:23.648Z,12.40
2022-11-02T04:19:13.524Z,12.40
2022-11-02T04:21:40.993Z,12.40
2022-11-02T04:24:27.253Z,12.50
2022-11-02T04:26:53.991Z,12.40
2022-11-02T04:29:20.739Z,12.40
2022-11-02T04:31:47.480Z,12.50
2022-11-02T04:34:14.194Z,12.50
2022-11-02T04:36:41.316Z,12.50
2022-11-02T04:39:08.109Z,12.40
2022-11-02T04:41:44.302Z,12.50
2022-11-02T04:44:13.110Z,12.50
2022-11-02T04:46:41.919Z,12.50
2022-11-02T04:49:09.731Z,12.60
2022-11-02T04:51:36.872Z,12.70
2022-11-02T04:56:39.061Z,12.70
2022-11-02T04:59:05.801Z,12.80
2022-11-02T05:01:32.849Z,12.70
2022-11-02T05:03:59.739Z,12.80
2022-11-02T05:06:26.621Z,12.80
2022-11-02T05:08:53.504Z,12.80
2022-11-02T05:11:20.727Z,12.70
2022-11-02T05:13:47.600Z,12.80
2022-11-02T05:16:16.273Z,12.80
2022-11-02T05:18:43.720Z,12.80
2022-11-02T05:21:11.994Z,12.80
2022-11-02T05:23:39.044Z,12.80
2022-11-02T05:26:09.561Z,12.70
2022-11-02T05:28:36.413Z,12.70
2022-11-02T05:31:03.680Z,12.60
2022-11-02T05:33:31.531Z,12.60
2022-11-02T05:35:59.653Z,12.50
2022-11-02T05:38:27.271Z,12.50
2022-11-02T05:41:00.245Z,12.50
2022-11-02T05:43:27.279Z,12.40
2022-11-02T05:45:55.713Z,12.40
2022-11-02T05:48:23.666Z,12.40
2022-11-02T05:50:54.554Z,12.30
2022-11-02T05:53:21.290Z,12.40
2022-11-02T05:55:47.993Z,12.30
2022-11-02T05:58:14.755Z,12.30
2022-11-02T06:00:41.487Z,12.30
2022-11-02T06:03:08.453Z,12.20
2022-11-02T06:05:35.387Z,12.30
2022-11-02T06:08:02.571Z,12.30
2022-11-02T06:10:30.561Z,12.40
2022-11-02T06:13:02.783Z,12.30
2022-11-02T06:15:31.429Z,12.40
2022-11-02T06:17:58.644Z,12.30
2022-11-02T06:20:25.540Z,12.40
2022-11-02T06:22:52.268Z,12.40
2022-11-02T06:25:19.388Z,12.40
2022-11-02T06:27:55.077Z,12.40
2022-11-02T06:30:23.217Z,12.40
2022-11-02T06:32:53.154Z,12.50
2022-11-02T06:35:21.941Z,12.40
2022-11-02T06:37:48.922Z,12.50
2022-11-02T06:40:16.150Z,12.40
2022-11-02T06:45:28.293Z,12.50
2022-11-02T06:47:55.203Z,12.40
2022-11-02T06:50:22.892Z,12.50
2022-11-02T06:52:49.729Z,12.40
2022-11-02T06:55:17.224Z,12.50
2022-11-02T07:00:34.944Z,12.50
2022-11-02T07:03:10.442Z,12.40
2022-11-02T07:05:37.946Z,12.50
2022-11-02T07:08:05.202Z,12.50
2022-11-02T07:10:32.032Z,12.50
2022-11-02T07:12:58.979Z,12.50
2022-11-02T07:15:26.557Z,12.50
2022-11-02T07:17:53.779Z,12.50
2022-11-02T07:20:21.133Z,12.40
2022-11-02T07:22:55.536Z,12.40
2022-11-02T07:25:23.030Z,12.40
2022-11-02T07:27:49.961Z,12.40
2022-11-02T07:30:17.253Z,12.40
2022-11-02T07:32:45.315Z,12.60
2022-11-02T07:35:14.028Z,12.60
2022-11-02T07:37:41.261Z,12.60
2022-11-02T07:40:10.676Z,12.60
2022-11-02T07:42:44.164Z,12.70
2022-11-02T07:45:12.265Z,12.70
2022-11-02T07:47:45.929Z,12.70
2022-11-02T07:50:14.163Z,12.70
2022-11-02T07:52:55.515Z,12.80
2022-11-02T07:55:24.921Z,12.80
2022-11-02T07:58:03.319Z,12.90
2022-11-02T08:00:32.741Z,12.80
2022-11-02T08:03:01.052Z,12.80
2022-11-02T08:05:29.921Z,12.90
2022-11-02T08:08:08.611Z,13.00
2022-11-02T08:10:39.072Z,12.90
2022-11-02T08:13:12.579Z,12.90
2022-11-02T08:15:39.334Z,13.00
2022-11-02T08:18:16.700Z,13.00
2022-11-02T08:20:45.788Z,13.00
2022-11-02T08:23:13.470Z,13.10
2022-11-02T08:25:41.151Z,13.00
2022-11-02T08:28:12.677Z,13.00
2022-11-02T08:30:39.470Z,13.00
2022-11-02T08:33:11.207Z,13.00
2022-11-02T08:35:37.988Z,13.10
2022-11-02T08:38:05.192Z,13.00
2022-11-02T08:40:33.484Z,13.00
2022-11-02T08:43:08.301Z,13.10
2022-11-02T08:46:08.413Z,13.10
2022-11-02T08:48:23.261Z,13.10
2022-11-02T08:50:50.348Z,13.10
2022-11-02T08:53:17.398Z,13.20
2022-11-02T08:55:44.336Z,13.10
2022-11-02T09:01:11.860Z,13.20
2022-11-02T09:03:38.652Z,13.20
2022-11-02T09:06:05.537Z,13.20
2022-11-02T09:08:33.246Z,13.20
2022-11-02T09:11:03.027Z,13.30
2022-11-02T09:13:30.274Z,13.30
2022-11-02T09:15:58.654Z,13.30
2022-11-02T09:18:25.501Z,13.40
2022-11-02T09:20:52.598Z,13.40
2022-11-02T09:23:20.753Z,13.70
2022-11-02T09:25:48.316Z,13.60
2022-11-02T09:28:15.692Z,13.70
2022-11-02T09:30:43.003Z,13.60
2022-11-02T09:33:10.817Z,13.60
2022-11-02T09:35:40.804Z,13.70
2022-11-02T09:38:08.036Z,13.70
2022-11-02T09:40:49.131Z,13.80
2022-11-02T09:43:52.988Z,13.90
2022-11-02T09:47:17.665Z,13.90
2022-11-02T09:49:36.239Z,13.90
2022-11-02T09:52:03.406Z,14.20
2022-11-02T09:54:36.693Z,14.20
2022-11-02T09:57:09.069Z,14.10
2022-11-02T09:59:35.872Z,14.10
2022-11-02T10:02:23.412Z,14.00
2022-11-02T10:04:50.167Z,14.10
2022-11-02T10:07:40.951Z,14.10
2022-11-02T10:10:31.950Z,14.20
2022-11-02T10:13:22.607Z,14.10
2022-11-02T10:16:05.932Z,14.20
2022-11-02T10:18:35.608Z,14.20
2022-11-02T10:21:13.321Z,14.00
2022-11-02T10:23:41.211Z,14.00
2022-11-02T10:26:34.584Z,14.10
2022-11-02T10:29:30.193Z,14.10
2022-11-02T10:31:56.985Z,14.10
2022-11-02T10:34:28.125Z,14.20
2022-11-02T10:37:32.651Z,14.30
